sensor_id;sensor_type;location;lat;lon;timestamp;temperature;humidity
65637;DHT22;52327;42.622;23.316;2022-11-14T00:00:44;4.69;81.58
65637;DHT22;52327;42.622;23.316;2022-11-14T00:03:11;4.77;81.02
65637;DHT22;52327;42.622;23.316;2022-11-14T00:05:41;4.82;81.25
65637;DHT22;52327;42.622;23.316;2022-11-14T00:08:17;4.84;80.83
65637;DHT22;52327;42.622;23.316;2022-11-14T00:10:47;4.64;81.44
65637;DHT22;52327;42.622;23.316;2022-11-14T00:13:13;4.58;82.04
65637;DHT22;52327;42.622;23.316;2022-11-14T00:15:39;4.67;82.04
65637;DHT22;52327;42.622;23.316;2022-11-14T00:18:05;4.68;81.37
65637;DHT22;52327;42.622;23.316;2022-11-14T00:20:31;4.74;80.94
65637;DHT22;52327;42.622;23.316;2022-11-14T00:22:56;4.62;82.59
65637;DHT22;52327;42.622;23.316;2022-11-14T00:25:22;4.50;82.06
65637;DHT22;52327;42.622;23.316;2022-11-14T00:27:47;4.46;81.74
65637;DHT22;52327;42.622;23.316;2022-11-14T00:30:12;4.56;80.82
65637;DHT22;52327;42.622;23.316;2022-11-14T00:32:38;4.54;81.13
65637;DHT22;52327;42.622;23.316;2022-11-14T00:35:03;4.46;81.92
65637;DHT22;52327;42.622;23.316;2022-11-14T00:37:30;4.54;80.55
65637;DHT22;52327;42.622;23.316;2022-11-14T00:39:55;4.57;80.23
65637;DHT22;52327;42.622;23.316;2022-11-14T00:42:21;4.53;80.92
65637;DHT22;52327;42.622;23.316;2022-11-14T00:44:46;4.37;81.99
65637;DHT22;52327;42.622;23.316;2022-11-14T00:47:12;4.37;81.71
65637;DHT22;52327;42.622;23.316;2022-11-14T00:49:37;4.43;81.59
65637;DHT22;52327;42.622;23.316;2022-11-14T00:52:03;4.24;81.66
65637;DHT22;52327;42.622;23.316;2022-11-14T00:54:28;4.09;82.38
65637;DHT22;52327;42.622;23.316;2022-11-14T00:56:54;4.17;82.60
65637;DHT22;52327;42.622;23.316;2022-11-14T00:59:19;4.13;83.06
65637;DHT22;52327;42.622;23.316;2022-11-14T01:01:45;4.05;83.54
65637;DHT22;52327;42.622;23.316;2022-11-14T01:04:10;4.06;83.53
65637;DHT22;52327;42.622;23.316;2022-11-14T01:06:36;4.07;83.21
65637;DHT22;52327;42.622;23.316;2022-11-14T01:09:01;4.13;83.11
65637;DHT22;52327;42.622;23.316;2022-11-14T01:11:27;4.24;82.80
65637;DHT22;52327;42.622;23.316;2022-11-14T01:13:52;4.24;81.73
65637;DHT22;52327;42.622;23.316;2022-11-14T01:16:17;4.37;82.10
65637;DHT22;52327;42.622;23.316;2022-11-14T01:18:44;4.37;82.73
65637;DHT22;52327;42.622;23.316;2022-11-14T01:21:11;4.36;83.24
65637;DHT22;52327;42.622;23.316;2022-11-14T01:23:37;4.30;83.41
65637;DHT22;52327;42.622;23.316;2022-11-14T01:26:09;4.27;83.13
65637;DHT22;52327;42.622;23.316;2022-11-14T01:28:35;4.27;83.23
65637;DHT22;52327;42.622;23.316;2022-11-14T01:31:12;4.30;82.83
65637;DHT22;52327;42.622;23.316;2022-11-14T01:33:39;4.33;82.27
65637;DHT22;52327;42.622;23.316;2022-11-14T01:36:05;4.30;82.56
65637;DHT22;52327;42.622;23.316;2022-11-14T01:38:31;4.21;82.45
65637;DHT22;52327;42.622;23.316;2022-11-14T01:40:56;4.10;82.60
65637;DHT22;52327;42.622;23.316;2022-11-14T01:43:30;4.13;82.65
65637;DHT22;52327;42.622;23.316;2022-11-14T01:51:03;4.16;81.61
65637;DHT22;52327;42.622;23.316;2022-11-14T01:53:30;4.29;80.98
65637;DHT22;52327;42.622;23.316;2022-11-14T01:55:59;4.32;80.40
65637;DHT22;52327;42.622;23.316;2022-11-14T01:58:26;4.26;81.05
65637;DHT22;52327;42.622;23.316;2022-11-14T02:00:52;4.26;81.56
65637;DHT22;52327;42.622;23.316;2022-11-14T02:03:18;4.21;81.59
65637;DHT22;52327;42.622;23.316;2022-11-14T02:05:45;4.26;81.80
65637;DHT22;52327;42.622;23.316;2022-11-14T02:08:13;4.18;82.00
65637;DHT22;52327;42.622;23.316;2022-11-14T02:10:38;4.26;81.46
65637;DHT22;52327;42.622;23.316;2022-11-14T02:13:04;4.20;82.04
65637;DHT22;52327;42.622;23.316;2022-11-14T02:15:29;4.18;82.40
65637;DHT22;52327;42.622;23.316;2022-11-14T02:17:55;4.27;82.37
65637;DHT22;52327;42.622;23.316;2022-11-14T02:20:23;4.33;81.95
65637;DHT22;52327;42.622;23.316;2022-11-14T02:22:48;4.43;81.33
65637;DHT22;52327;42.622;23.316;2022-11-14T02:25:15;4.27;81.60
65637;DHT22;52327;42.622;23.316;2022-11-14T02:27:42;4.27;81.71
65637;DHT22;52327;42.622;23.316;2022-11-14T02:30:17;4.40;80.93
65637;DHT22;52327;42.622;23.316;2022-11-14T02:32:43;4.34;80.73
65637;DHT22;52327;42.622;23.316;2022-11-14T02:35:08;4.46;79.96
65637;DHT22;52327;42.622;23.316;2022-11-14T02:37:34;4.44;80.20
65637;DHT22;52327;42.622;23.316;2022-11-14T02:39:59;4.36;81.02
65637;DHT22;52327;42.622;23.316;2022-11-14T02:42:25;4.41;79.58
65637;DHT22;52327;42.622;23.316;2022-11-14T02:44:50;4.40;79.79
65637;DHT22;52327;42.622;23.316;2022-11-14T02:47:15;4.37;79.81
65637;DHT22;52327;42.622;23.316;2022-11-14T02:49:41;4.32;80.55
65637;DHT22;52327;42.622;23.316;2022-11-14T02:52:06;4.18;82.04
65637;DHT22;52327;42.622;23.316;2022-11-14T02:54:32;4.11;82.72
65637;DHT22;52327;42.622;23.316;2022-11-14T02:56:57;4.14;82.51
65637;DHT22;52327;42.622;23.316;2022-11-14T02:59:22;4.03;83.02
65637;DHT22;52327;42.622;23.316;2022-11-14T03:01:48;4.02;83.30
65637;DHT22;52327;42.622;23.316;2022-11-14T03:04:13;3.95;82.76
65637;DHT22;52327;42.622;23.316;2022-11-14T03:06:39;4.07;81.44
65637;DHT22;52327;42.622;23.316;2022-11-14T03:09:04;4.11;82.05
65637;DHT22;52327;42.622;23.316;2022-11-14T03:11:30;4.07;81.68
65637;DHT22;52327;42.622;23.316;2022-11-14T03:13:55;4.13;81.64
65637;DHT22;52327;42.622;23.316;2022-11-14T03:16:21;4.00;81.93
65637;DHT22;52327;42.622;23.316;2022-11-14T03:18:46;4.00;82.17
65637;DHT22;52327;42.622;23.316;2022-11-14T03:21:15;3.89;82.75
65637;DHT22;52327;42.622;23.316;2022-11-14T03:23:41;3.86;83.55
65637;DHT22;52327;42.622;23.316;2022-11-14T03:26:08;3.97;82.08
65637;DHT22;52327;42.622;23.316;2022-11-14T03:28:34;4.16;81.15
65637;DHT22;52327;42.622;23.316;2022-11-14T03:31:00;4.18;80.23
65637;DHT22;52327;42.622;23.316;2022-11-14T03:33:26;4.09;81.12
65637;DHT22;52327;42.622;23.316;2022-11-14T03:35:52;4.00;82.56
65637;DHT22;52327;42.622;23.316;2022-11-14T03:38:18;3.93;82.98
65637;DHT22;52327;42.622;23.316;2022-11-14T03:40:47;4.00;82.41
65637;DHT22;52327;42.622;23.316;2022-11-14T03:43:13;3.97;82.40
65637;DHT22;52327;42.622;23.316;2022-11-14T03:45:38;3.83;83.54
65637;DHT22;52327;42.622;23.316;2022-11-14T03:48:05;3.86;83.29
65637;DHT22;52327;42.622;23.316;2022-11-14T03:50:30;3.90;82.89
65637;DHT22;52327;42.622;23.316;2022-11-14T03:52:56;3.86;83.10
65637;DHT22;52327;42.622;23.316;2022-11-14T03:55:21;3.79;82.64
65637;DHT22;52327;42.622;23.316;2022-11-14T03:57:46;3.66;83.22
65637;DHT22;52327;42.622;23.316;2022-11-14T04:00:12;3.64;83.49
65637;DHT22;52327;42.622;23.316;2022-11-14T04:02:37;3.68;83.01
65637;DHT22;52327;42.622;23.316;2022-11-14T04:05:03;3.81;82.27
65637;DHT22;52327;42.622;23.316;2022-11-14T04:07:29;3.79;81.99
65637;DHT22;52327;42.622;23.316;2022-11-14T04:09:54;3.75;82.95
65637;DHT22;52327;42.622;23.316;2022-11-14T04:12:20;3.71;82.98
65637;DHT22;52327;42.622;23.316;2022-11-14T04:14:45;3.65;83.26
65637;DHT22;52327;42.622;23.316;2022-11-14T04:17:10;3.62;83.43
65637;DHT22;52327;42.622;23.316;2022-11-14T04:19:36;3.68;83.35
65637;DHT22;52327;42.622;23.316;2022-11-14T04:22:01;3.69;82.34
65637;DHT22;52327;42.622;23.316;2022-11-14T04:24:27;3.65;82.87
65637;DHT22;52327;42.622;23.316;2022-11-14T04:26:52;3.58;83.38
65637;DHT22;52327;42.622;23.316;2022-11-14T04:29:18;3.55;83.59
65637;DHT22;52327;42.622;23.316;2022-11-14T04:31:43;3.55;83.53
65637;DHT22;52327;42.622;23.316;2022-11-14T04:34:09;3.61;83.31
65637;DHT22;52327;42.622;23.316;2022-11-14T04:36:34;3.61;83.63
65637;DHT22;52327;42.622;23.316;2022-11-14T04:39:00;3.62;83.99
65637;DHT22;52327;42.622;23.316;2022-11-14T04:41:25;3.64;83.48
65637;DHT22;52327;42.622;23.316;2022-11-14T04:43:51;3.62;83.44
65637;DHT22;52327;42.622;23.316;2022-11-14T04:46:16;3.62;83.36
65637;DHT22;52327;42.622;23.316;2022-11-14T04:48:42;3.55;84.28
65637;DHT22;52327;42.622;23.316;2022-11-14T04:51:07;3.65;84.22
65637;DHT22;52327;42.622;23.316;2022-11-14T04:53:32;3.72;83.62
65637;DHT22;52327;42.622;23.316;2022-11-14T04:55:58;3.72;83.43
65637;DHT22;52327;42.622;23.316;2022-11-14T04:58:23;3.75;82.65
65637;DHT22;52327;42.622;23.316;2022-11-14T05:00:49;3.76;82.74
65637;DHT22;52327;42.622;23.316;2022-11-14T05:03:14;3.78;82.75
65637;DHT22;52327;42.622;23.316;2022-11-14T05:05:39;3.79;82.58
65637;DHT22;52327;42.622;23.316;2022-11-14T05:08:05;3.71;83.53
65637;DHT22;52327;42.622;23.316;2022-11-14T05:10:30;3.78;83.31
65637;DHT22;52327;42.622;23.316;2022-11-14T05:12:56;3.83;82.86
65637;DHT22;52327;42.622;23.316;2022-11-14T05:15:21;3.86;81.83
65637;DHT22;52327;42.622;23.316;2022-11-14T05:17:47;3.96;80.84
65637;DHT22;52327;42.622;23.316;2022-11-14T05:20:12;3.85;81.82
65637;DHT22;52327;42.622;23.316;2022-11-14T05:22:38;3.81;82.39
65637;DHT22;52327;42.622;23.316;2022-11-14T05:25:04;3.93;82.47
65637;DHT22;52327;42.622;23.316;2022-11-14T05:27:30;3.86;83.03
65637;DHT22;52327;42.622;23.316;2022-11-14T05:29:55;3.81;83.09
65637;DHT22;52327;42.622;23.316;2022-11-14T05:32:21;3.96;82.79
65637;DHT22;52327;42.622;23.316;2022-11-14T05:34:46;3.86;82.30
65637;DHT22;52327;42.622;23.316;2022-11-14T05:37:12;3.87;82.54
65637;DHT22;52327;42.622;23.316;2022-11-14T05:39:37;3.99;82.37
65637;DHT22;52327;42.622;23.316;2022-11-14T05:42:03;4.13;80.90
65637;DHT22;52327;42.622;23.316;2022-11-14T05:44:28;4.14;81.23
65637;DHT22;52327;42.622;23.316;2022-11-14T05:46:54;4.11;81.80
65637;DHT22;52327;42.622;23.316;2022-11-14T05:49:19;4.03;82.12
65637;DHT22;52327;42.622;23.316;2022-11-14T05:51:45;4.02;82.61
65637;DHT22;52327;42.622;23.316;2022-11-14T05:54:10;4.05;82.66
65637;DHT22;52327;42.622;23.316;2022-11-14T05:56:36;4.09;82.53
65637;DHT22;52327;42.622;23.316;2022-11-14T05:59:01;4.06;82.59
65637;DHT22;52327;42.622;23.316;2022-11-14T06:01:26;4.09;82.86
65637;DHT22;52327;42.622;23.316;2022-11-14T06:03:52;4.13;83.02
65637;DHT22;52327;42.622;23.316;2022-11-14T06:06:19;4.10;83.08
65637;DHT22;52327;42.622;23.316;2022-11-14T06:08:45;4.09;83.16
65637;DHT22;52327;42.622;23.316;2022-11-14T06:11:14;4.13;83.20
65637;DHT22;52327;42.622;23.316;2022-11-14T06:13:40;4.17;83.04
65637;DHT22;52327;42.622;23.316;2022-11-14T06:16:08;4.27;83.02
65637;DHT22;52327;42.622;23.316;2022-11-14T06:18:35;4.33;82.83
65637;DHT22;52327;42.622;23.316;2022-11-14T06:21:18;4.21;82.76
65637;DHT22;52327;42.622;23.316;2022-11-14T06:23:44;4.30;83.03
65637;DHT22;52327;42.622;23.316;2022-11-14T06:26:19;4.40;82.70
65637;DHT22;52327;42.622;23.316;2022-11-14T06:28:46;4.47;82.95
65637;DHT22;52327;42.622;23.316;2022-11-14T06:31:11;4.56;82.76
65637;DHT22;52327;42.622;23.316;2022-11-14T06:33:36;4.71;82.47
65637;DHT22;52327;42.622;23.316;2022-11-14T06:36:04;4.75;82.23
65637;DHT22;52327;42.622;23.316;2022-11-14T06:38:32;4.81;82.16
65637;DHT22;52327;42.622;23.316;2022-11-14T06:41:14;4.82;82.17
65637;DHT22;52327;42.622;23.316;2022-11-14T06:43:42;4.79;82.17
65637;DHT22;52327;42.622;23.316;2022-11-14T06:46:10;4.89;82.15
65637;DHT22;52327;42.622;23.316;2022-11-14T06:48:36;5.02;82.13
65637;DHT22;52327;42.622;23.316;2022-11-14T06:51:02;5.18;81.77
65637;DHT22;52327;42.622;23.316;2022-11-14T06:53:30;5.32;81.59
65637;DHT22;52327;42.622;23.316;2022-11-14T06:56:02;5.43;81.25
65637;DHT22;52327;42.622;23.316;2022-11-14T06:58:30;5.51;81.08
65637;DHT22;52327;42.622;23.316;2022-11-14T07:00:56;5.66;80.89
65637;DHT22;52327;42.622;23.316;2022-11-14T07:03:26;5.73;80.79
65637;DHT22;52327;42.622;23.316;2022-11-14T07:05:51;5.80;80.66
65637;DHT22;52327;42.622;23.316;2022-11-14T07:08:17;5.90;80.59
65637;DHT22;52327;42.622;23.316;2022-11-14T07:10:42;5.97;80.11
65637;DHT22;52327;42.622;23.316;2022-11-14T07:13:08;5.94;80.08
65637;DHT22;52327;42.622;23.316;2022-11-14T07:15:35;5.90;80.01
65637;DHT22;52327;42.622;23.316;2022-11-14T07:18:01;5.98;79.49
65637;DHT22;52327;42.622;23.316;2022-11-14T07:20:26;5.97;79.81
65637;DHT22;52327;42.622;23.316;2022-11-14T07:22:52;5.98;80.01
65637;DHT22;52327;42.622;23.316;2022-11-14T07:25:17;6.04;80.15
65637;DHT22;52327;42.622;23.316;2022-11-14T07:27:42;6.08;80.01
65637;DHT22;52327;42.622;23.316;2022-11-14T07:30:08;6.14;80.09
65637;DHT22;52327;42.622;23.316;2022-11-14T07:32:34;6.17;79.90
65637;DHT22;52327;42.622;23.316;2022-11-14T07:34:59;6.15;79.72
65637;DHT22;52327;42.622;23.316;2022-11-14T07:37:24;6.20;79.72
65637;DHT22;52327;42.622;23.316;2022-11-14T07:39:50;6.22;79.56
65637;DHT22;52327;42.622;23.316;2022-11-14T07:42:15;6.18;79.68
65637;DHT22;52327;42.622;23.316;2022-11-14T07:44:41;6.20;79.81
65637;DHT22;52327;42.622;23.316;2022-11-14T07:47:06;6.20;79.97
65637;DHT22;52327;42.622;23.316;2022-11-14T07:49:31;6.25;79.41
65637;DHT22;52327;42.622;23.316;2022-11-14T07:51:58;6.26;79.47
65637;DHT22;52327;42.622;23.316;2022-11-14T07:54:24;6.42;78.78
65637;DHT22;52327;42.622;23.316;2022-11-14T07:56:49;6.31;79.54
65637;DHT22;52327;42.622;23.316;2022-11-14T07:59:14;6.33;80.02
65637;DHT22;52327;42.622;23.316;2022-11-14T08:01:40;6.33;79.76
65637;DHT22;52327;42.622;23.316;2022-11-14T08:04:05;6.28;79.79
65637;DHT22;52327;42.622;23.316;2022-11-14T08:06:31;6.33;79.79
65637;DHT22;52327;42.622;23.316;2022-11-14T08:08:56;6.45;79.50
65637;DHT22;52327;42.622;23.316;2022-11-14T08:11:22;6.59;79.25
65637;DHT22;52327;42.622;23.316;2022-11-14T08:14:06;6.69;79.11
65637;DHT22;52327;42.622;23.316;2022-11-14T08:16:32;6.71;79.17
65637;DHT22;52327;42.622;23.316;2022-11-14T08:18:59;6.63;78.88
65637;DHT22;52327;42.622;23.316;2022-11-14T08:21:25;6.53;79.28
65637;DHT22;52327;42.622;23.316;2022-11-14T08:23:50;6.46;79.41
65637;DHT22;52327;42.622;23.316;2022-11-14T08:26:16;6.49;79.78
65637;DHT22;52327;42.622;23.316;2022-11-14T08:28:41;6.65;79.11
65637;DHT22;52327;42.622;23.316;2022-11-14T08:31:06;6.72;78.94
65637;DHT22;52327;42.622;23.316;2022-11-14T08:33:34;6.80;78.97
65637;DHT22;52327;42.622;23.316;2022-11-14T08:36:03;6.61;79.29
65637;DHT22;52327;42.622;23.316;2022-11-14T08:38:32;6.66;79.85
65637;DHT22;52327;42.622;23.316;2022-11-14T08:40:59;6.72;79.62
65637;DHT22;52327;42.622;23.316;2022-11-14T08:43:24;6.73;79.45
65637;DHT22;52327;42.622;23.316;2022-11-14T08:45:50;6.82;79.56
65637;DHT22;52327;42.622;23.316;2022-11-14T08:48:16;6.96;79.01
65637;DHT22;52327;42.622;23.316;2022-11-14T08:50:41;7.04;78.28
65637;DHT22;52327;42.622;23.316;2022-11-14T08:53:07;7.04;78.88
65637;DHT22;52327;42.622;23.316;2022-11-14T08:55:32;7.11;79.03
65637;DHT22;52327;42.622;23.316;2022-11-14T08:57:58;7.28;78.28
65637;DHT22;52327;42.622;23.316;2022-11-14T09:00:23;7.37;77.96
65637;DHT22;52327;42.622;23.316;2022-11-14T09:02:49;7.27;78.19
65637;DHT22;52327;42.622;23.316;2022-11-14T09:05:14;7.35;77.96
65637;DHT22;52327;42.622;23.316;2022-11-14T09:07:40;7.41;77.69
65637;DHT22;52327;42.622;23.316;2022-11-14T09:10:06;7.45;77.75
65637;DHT22;52327;42.622;23.316;2022-11-14T09:12:32;7.31;77.95
65637;DHT22;52327;42.622;23.316;2022-11-14T09:14:57;7.23;77.85
65637;DHT22;52327;42.622;23.316;2022-11-14T09:17:23;7.35;78.13
65637;DHT22;52327;42.622;23.316;2022-11-14T09:19:48;7.37;78.03
65637;DHT22;52327;42.622;23.316;2022-11-14T09:22:14;7.35;78.20
65637;DHT22;52327;42.622;23.316;2022-11-14T09:24:43;7.47;78.25
65637;DHT22;52327;42.622;23.316;2022-11-14T09:27:11;7.47;77.66
65637;DHT22;52327;42.622;23.316;2022-11-14T09:29:37;7.55;77.87
65637;DHT22;52327;42.622;23.316;2022-11-14T09:32:03;7.76;77.34
65637;DHT22;52327;42.622;23.316;2022-11-14T09:34:28;7.88;76.78
65637;DHT22;52327;42.622;23.316;2022-11-14T09:36:54;7.64;77.27
65637;DHT22;52327;42.622;23.316;2022-11-14T09:39:19;7.62;78.15
65637;DHT22;52327;42.622;23.316;2022-11-14T09:42:23;7.41;78.68
65637;DHT22;52327;42.622;23.316;2022-11-14T09:44:58;7.50;78.67
65637;DHT22;52327;42.622;23.316;2022-11-14T09:47:35;7.43;78.68
65637;DHT22;52327;42.622;23.316;2022-11-14T09:50:05;7.54;78.94
65637;DHT22;52327;42.622;23.316;2022-11-14T09:55:11;7.82;77.45
65637;DHT22;52327;42.622;23.316;2022-11-14T09:57:39;7.85;77.28
65637;DHT22;52327;42.622;23.316;2022-11-14T10:00:17;7.71;78.02
65637;DHT22;52327;42.622;23.316;2022-11-14T10:11:08;8.10;77.34
65637;DHT22;52327;42.622;23.316;2022-11-14T10:21:53;8.37;76.39
65637;DHT22;52327;42.622;23.316;2022-11-14T10:24:56;8.53;76.24
65637;DHT22;52327;42.622;23.316;2022-11-14T10:27:31;8.46;76.11
65637;DHT22;52327;42.622;23.316;2022-11-14T10:30:13;8.33;76.15
65637;DHT22;52327;42.622;23.316;2022-11-14T10:33:09;8.33;77.01
65637;DHT22;52327;42.622;23.316;2022-11-14T10:35:54;8.58;75.95
65637;DHT22;52327;42.622;23.316;2022-11-14T10:40:59;8.81;74.85
65637;DHT22;52327;42.622;23.316;2022-11-14T10:48:37;9.35;73.44
65637;DHT22;52327;42.622;23.316;2022-11-14T10:51:21;9.38;73.93
65637;DHT22;52327;42.622;23.316;2022-11-14T10:53:53;9.35;73.10
65637;DHT22;52327;42.622;23.316;2022-11-14T10:56:20;9.33;73.82
65637;DHT22;52327;42.622;23.316;2022-11-14T10:58:46;9.28;73.58
65637;DHT22;52327;42.622;23.316;2022-11-14T11:09:32;9.38;72.56
65637;DHT22;52327;42.622;23.316;2022-11-14T11:12:23;9.54;72.93
65637;DHT22;52327;42.622;23.316;2022-11-14T11:15:07;9.60;72.35
65637;DHT22;52327;42.622;23.316;2022-11-14T11:17:32;9.63;72.45
65637;DHT22;52327;42.622;23.316;2022-11-14T11:20:23;9.81;71.17
65637;DHT22;52327;42.622;23.316;2022-11-14T11:25:29;9.84;71.53
65637;DHT22;52327;42.622;23.316;2022-11-14T11:28:15;9.87;71.03
65637;DHT22;52327;42.622;23.316;2022-11-14T11:30:57;9.86;70.74
65637;DHT22;52327;42.622;23.316;2022-11-14T11:33:28;9.91;70.79
65637;DHT22;52327;42.622;23.316;2022-11-14T11:35:56;9.91;70.35
65637;DHT22;52327;42.622;23.316;2022-11-14T11:38:27;9.87;70.45
65637;DHT22;52327;42.622;23.316;2022-11-14T11:43:59;10.05;70.10
65637;DHT22;52327;42.622;23.316;2022-11-14T11:46:58;10.01;70.03
65637;DHT22;52327;42.622;23.316;2022-11-14T11:49:41;10.10;70.53
65637;DHT22;52327;42.622;23.316;2022-11-14T11:52:26;10.08;70.34
65637;DHT22;52327;42.622;23.316;2022-11-14T11:57:42;10.35;68.62
65637;DHT22;52327;42.622;23.316;2022-11-14T12:00:19;10.44;68.41
65637;DHT22;52327;42.622;23.316;2022-11-14T12:02:54;10.37;68.78
65637;DHT22;52327;42.622;23.316;2022-11-14T12:05:45;10.32;69.11
65637;DHT22;52327;42.622;23.316;2022-11-14T12:08:23;10.45;69.18
65637;DHT22;52327;42.622;23.316;2022-11-14T12:10:51;10.51;68.98
65637;DHT22;52327;42.622;23.316;2022-11-14T12:16:56;10.63;68.81
65637;DHT22;52327;42.622;23.316;2022-11-14T12:25:07;10.73;68.91
65637;DHT22;52327;42.622;23.316;2022-11-14T12:28:14;10.71;68.76
65637;DHT22;52327;42.622;23.316;2022-11-14T12:30:50;10.63;68.53
65637;DHT22;52327;42.622;23.316;2022-11-14T12:33:28;10.55;68.81
65637;DHT22;52327;42.622;23.316;2022-11-14T12:36:00;10.65;68.57
65637;DHT22;52327;42.622;23.316;2022-11-14T12:38:33;10.66;68.81
65637;DHT22;52327;42.622;23.316;2022-11-14T12:40:59;10.77;68.54
65637;DHT22;52327;42.622;23.316;2022-11-14T12:43:33;10.63;68.87
65637;DHT22;52327;42.622;23.316;2022-11-14T12:46:02;10.76;68.43
65637;DHT22;52327;42.622;23.316;2022-11-14T12:48:30;10.76;69.15
65637;DHT22;52327;42.622;23.316;2022-11-14T12:50:57;10.91;68.40
65637;DHT22;52327;42.622;23.316;2022-11-14T13:04:55;11.03;67.15
65637;DHT22;52327;42.622;23.316;2022-11-14T13:10:29;10.91;67.24
65637;DHT22;52327;42.622;23.316;2022-11-14T13:13:10;10.88;65.35
65637;DHT22;52327;42.622;23.316;2022-11-14T13:15:55;10.93;66.90
65637;DHT22;52327;42.622;23.316;2022-11-14T13:19:00;10.93;66.96
65637;DHT22;52327;42.622;23.316;2022-11-14T13:22:39;10.92;67.05
65637;DHT22;52327;42.622;23.316;2022-11-14T13:25:18;10.82;67.08
65637;DHT22;52327;42.622;23.316;2022-11-14T13:27:44;10.75;67.08
65637;DHT22;52327;42.622;23.316;2022-11-14T13:30:09;10.31;68.73
65637;DHT22;52327;42.622;23.316;2022-11-14T13:41:19;10.21;69.86
65637;DHT22;52327;42.622;23.316;2022-11-14T13:49:58;9.33;72.02
65637;DHT22;52327;42.622;23.316;2022-11-14T13:52:28;9.15;72.38
65637;DHT22;52327;42.622;23.316;2022-11-14T13:54:55;9.28;72.62
65637;DHT22;52327;42.622;23.316;2022-11-14T14:08:47;9.35;69.99
65637;DHT22;52327;42.622;23.316;2022-11-14T14:11:38;9.26;70.32
65637;DHT22;52327;42.622;23.316;2022-11-14T14:14:16;9.29;69.88
65637;DHT22;52327;42.622;23.316;2022-11-14T14:16:53;9.15;70.90
65637;DHT22;52327;42.622;23.316;2022-11-14T14:20:02;9.07;71.14
65637;DHT22;52327;42.622;23.316;2022-11-14T14:22:51;9.16;71.00
65637;DHT22;52327;42.622;23.316;2022-11-14T14:31:15;9.07;70.61
65637;DHT22;52327;42.622;23.316;2022-11-14T14:33:45;9.07;70.72
65637;DHT22;52327;42.622;23.316;2022-11-14T14:36:26;8.91;71.51
65637;DHT22;52327;42.622;23.316;2022-11-14T14:39:14;8.89;69.59
65637;DHT22;52327;42.622;23.316;2022-11-14T14:41:41;8.77;70.50
65637;DHT22;52327;42.622;23.316;2022-11-14T14:44:26;8.43;70.64
65637;DHT22;52327;42.622;23.316;2022-11-14T14:46:53;8.20;72.13
65637;DHT22;52327;42.622;23.316;2022-11-14T14:49:28;8.13;72.67
65637;DHT22;52327;42.622;23.316;2022-11-14T14:51:54;8.03;72.16
65637;DHT22;52327;42.622;23.316;2022-11-14T14:54:28;7.96;72.19
65637;DHT22;52327;42.622;23.316;2022-11-14T14:57:02;7.96;72.24
65637;DHT22;52327;42.622;23.316;2022-11-14T14:59:29;7.90;71.40
65637;DHT22;52327;42.622;23.316;2022-11-14T15:01:56;8.07;69.16
65637;DHT22;52327;42.622;23.316;2022-11-14T15:04:34;8.09;70.68
65637;DHT22;52327;42.622;23.316;2022-11-14T15:07:02;8.12;70.21
65637;DHT22;52327;42.622;23.316;2022-11-14T15:09:28;8.06;70.78
65637;DHT22;52327;42.622;23.316;2022-11-14T15:11:58;7.81;71.74
65637;DHT22;52327;42.622;23.316;2022-11-14T15:14:28;7.68;71.92
65637;DHT22;52327;42.622;23.316;2022-11-14T15:16:54;7.65;72.47
65637;DHT22;52327;42.622;23.316;2022-11-14T15:19:23;7.48;72.96
65637;DHT22;52327;42.622;23.316;2022-11-14T15:22:04;7.44;72.63
65637;DHT22;52327;42.622;23.316;2022-11-14T15:24:30;7.59;72.06
65637;DHT22;52327;42.622;23.316;2022-11-14T15:26:55;7.58;71.82
65637;DHT22;52327;42.622;23.316;2022-11-14T15:29:23;7.56;71.10
65637;DHT22;52327;42.622;23.316;2022-11-14T15:31:53;7.41;70.91
65637;DHT22;52327;42.622;23.316;2022-11-14T15:34:26;7.55;68.60
65637;DHT22;52327;42.622;23.316;2022-11-14T15:39:40;7.44;69.80
65637;DHT22;52327;42.622;23.316;2022-11-14T15:44:48;7.59;68.30
65637;DHT22;52327;42.622;23.316;2022-11-14T15:52:45;7.31;69.19
65637;DHT22;52327;42.622;23.316;2022-11-14T15:55:19;7.41;68.39
65637;DHT22;52327;42.622;23.316;2022-11-14T15:57:45;7.35;69.40
65637;DHT22;52327;42.622;23.316;2022-11-14T16:00:12;7.31;69.18
65637;DHT22;52327;42.622;23.316;2022-11-14T16:02:55;7.25;69.67
65637;DHT22;52327;42.622;23.316;2022-11-14T16:05:27;7.38;67.81
65637;DHT22;52327;42.622;23.316;2022-11-14T16:07:53;7.35;67.94
65637;DHT22;52327;42.622;23.316;2022-11-14T16:10:23;7.40;66.61
65637;DHT22;52327;42.622;23.316;2022-11-14T16:12:50;7.40;66.30
65637;DHT22;52327;42.622;23.316;2022-11-14T16:15:16;7.44;67.46
65637;DHT22;52327;42.622;23.316;2022-11-14T16:17:44;7.51;68.16
65637;DHT22;52327;42.622;23.316;2022-11-14T16:20:18;7.43;69.10
65637;DHT22;52327;42.622;23.316;2022-11-14T16:22:45;7.44;68.32
65637;DHT22;52327;42.622;23.316;2022-11-14T16:27:43;7.41;66.31
65637;DHT22;52327;42.622;23.316;2022-11-14T16:30:13;7.45;66.84
65637;DHT22;52327;42.622;23.316;2022-11-14T16:32:39;7.40;67.76
65637;DHT22;52327;42.622;23.316;2022-11-14T16:35:11;7.23;68.42
65637;DHT22;52327;42.622;23.316;2022-11-14T16:37:37;7.11;68.47
65637;DHT22;52327;42.622;23.316;2022-11-14T16:40:02;7.10;68.94
65637;DHT22;52327;42.622;23.316;2022-11-14T16:42:28;7.14;69.29
65637;DHT22;52327;42.622;23.316;2022-11-14T16:44:58;7.05;70.11
65637;DHT22;52327;42.622;23.316;2022-11-14T16:47:25;7.01;71.27
65637;DHT22;52327;42.622;23.316;2022-11-14T16:49:50;7.01;71.62
65637;DHT22;52327;42.622;23.316;2022-11-14T16:52:15;6.94;72.36
65637;DHT22;52327;42.622;23.316;2022-11-14T16:54:41;6.82;73.20
65637;DHT22;52327;42.622;23.316;2022-11-14T16:57:06;6.75;73.51
65637;DHT22;52327;42.622;23.316;2022-11-14T16:59:32;6.84;72.81
65637;DHT22;52327;42.622;23.316;2022-11-14T17:01:57;6.77;72.97
65637;DHT22;52327;42.622;23.316;2022-11-14T17:04:22;6.69;73.22
65637;DHT22;52327;42.622;23.316;2022-11-14T17:06:48;6.72;73.28
65637;DHT22;52327;42.622;23.316;2022-11-14T17:09:13;6.72;73.12
65637;DHT22;52327;42.622;23.316;2022-11-14T17:11:47;6.79;72.68
65637;DHT22;52327;42.622;23.316;2022-11-14T17:14:13;6.79;73.17
65637;DHT22;52327;42.622;23.316;2022-11-14T17:16:38;6.87;72.30
65637;DHT22;52327;42.622;23.316;2022-11-14T17:19:04;6.76;72.73
65637;DHT22;52327;42.622;23.316;2022-11-14T17:21:29;6.83;72.21
65637;DHT22;52327;42.622;23.316;2022-11-14T17:23:56;6.82;73.03
65637;DHT22;52327;42.622;23.316;2022-11-14T17:26:24;6.53;74.14
65637;DHT22;52327;42.622;23.316;2022-11-14T17:28:50;6.36;74.41
65637;DHT22;52327;42.622;23.316;2022-11-14T17:31:15;6.25;74.58
65637;DHT22;52327;42.622;23.316;2022-11-14T17:33:41;6.22;75.31
65637;DHT22;52327;42.622;23.316;2022-11-14T17:36:09;6.17;75.40
65637;DHT22;52327;42.622;23.316;2022-11-14T17:38:35;6.21;75.15